sensor_id;sensor_type;location;lat;lon;timestamp;pressure;altitude;pressure_sealevel;temperature;humidity
56582;BME280;42463;52.214;21.238;2023-05-11T00:01:23;100923.30;;;11.99;37.46
56582;BME280;42463;52.214;21.238;2023-05-11T00:03:25;100924.69;;;11.97;37.50
56582;BME280;42463;52.214;21.238;2023-05-11T00:05:28;100924.99;;;11.95;37.68
56582;BME280;42463;52.214;21.238;2023-05-11T00:07:31;100923.45;;;11.94;37.75
56582;BME280;42463;52.214;21.238;2023-05-11T00:09:34;100924.02;;;11.92;37.60
56582;BME280;42463;52.214;21.238;2023-05-11T00:11:37;100924.30;;;11.89;37.64
56582;BME280;42463;52.214;21.238;2023-05-11T00:13:40;100920.08;;;11.86;37.75
56582;BME280;42463;52.214;21.238;2023-05-11T00:15:42;100920.48;;;11.84;37.72
56582;BME280;42463;52.214;21.238;2023-05-11T00:17:45;100921.34;;;11.82;37.82
56582;BME280;42463;52.214;21.238;2023-05-11T00:19:48;100919.36;;;11.81;37.79
56582;BME280;42463;52.214;21.238;2023-05-11T00:21:51;100919.52;;;11.80;37.86
56582;BME280;42463;52.214;21.238;2023-05-11T00:23:54;100918.14;;;11.79;37.80
56582;BME280;42463;52.214;21.238;2023-05-11T00:25:57;100919.57;;;11.77;37.76
56582;BME280;42463;52.214;21.238;2023-05-11T00:28:00;100917.77;;;11.74;37.77
56582;BME280;42463;52.214;21.238;2023-05-11T00:30:03;100921.57;;;11.71;37.68
56582;BME280;42463;52.214;21.238;2023-05-11T00:32:06;100917.05;;;11.67;37.75
56582;BME280;42463;52.214;21.238;2023-05-11T00:34:09;100915.00;;;11.64;37.76
56582;BME280;42463;52.214;21.238;2023-05-11T00:36:12;100916.55;;;11.63;37.77
56582;BME280;42463;52.214;21.238;2023-05-11T00:38:15;100916.33;;;11.62;37.68
56582;BME280;42463;52.214;21.238;2023-05-11T00:40:17;100914.83;;;11.60;37.90
56582;BME280;42463;52.214;21.238;2023-05-11T00:42:20;100918.75;;;11.57;37.93
56582;BME280;42463;52.214;21.238;2023-05-11T00:44:23;100917.54;;;11.56;37.71
56582;BME280;42463;52.214;21.238;2023-05-11T00:46:26;100913.79;;;11.52;37.76
56582;BME280;42463;52.214;21.238;2023-05-11T00:48:29;100912.19;;;11.50;37.79
56582;BME280;42463;52.214;21.238;2023-05-11T00:50:33;100910.56;;;11.47;37.93
56582;BME280;42463;52.214;21.238;2023-05-11T00:52:36;100906.34;;;11.45;37.94
56582;BME280;42463;52.214;21.238;2023-05-11T00:54:40;100906.86;;;11.42;37.94
56582;BME280;42463;52.214;21.238;2023-05-11T00:56:43;100909.87;;;11.40;37.98
56582;BME280;42463;52.214;21.238;2023-05-11T00:58:45;100908.11;;;11.39;37.74
56582;BME280;42463;52.214;21.238;2023-05-11T01:03:42;100905.30;;;11.36;38.14
56582;BME280;42463;52.214;21.238;2023-05-11T01:05:51;100899.67;;;11.35;38.08
56582;BME280;42463;52.214;21.238;2023-05-11T01:08:05;100900.61;;;11.35;38.05
56582;BME280;42463;52.214;21.238;2023-05-11T01:10:16;100899.11;;;11.33;38.06
56582;BME280;42463;52.214;21.238;2023-05-11T01:12:26;100902.39;;;11.34;38.08
56582;BME280;42463;52.214;21.238;2023-05-11T01:14:34;100897.89;;;11.31;37.99
56582;BME280;42463;52.214;21.238;2023-05-11T01:16:43;100898.73;;;11.29;38.03
56582;BME280;42463;52.214;21.238;2023-05-11T01:18:54;100895.34;;;11.25;38.13
56582;BME280;42463;52.214;21.238;2023-05-11T01:20:58;100898.70;;;11.24;38.17
56582;BME280;42463;52.214;21.238;2023-05-11T01:23:20;100896.13;;;11.23;38.11
56582;BME280;42463;52.214;21.238;2023-05-11T01:25:45;100895.95;;;11.22;38.10
56582;BME280;42463;52.214;21.238;2023-05-11T01:28:11;100896.70;;;11.18;38.04
56582;BME280;42463;52.214;21.238;2023-05-11T01:30:35;100898.36;;;11.16;38.18
56582;BME280;42463;52.214;21.238;2023-05-11T01:32:44;100898.99;;;11.16;38.23
56582;BME280;42463;52.214;21.238;2023-05-11T01:34:52;100899.60;;;11.13;38.20
56582;BME280;42463;52.214;21.238;2023-05-11T01:36:57;100897.09;;;11.11;38.29
56582;BME280;42463;52.214;21.238;2023-05-11T01:39:08;100897.00;;;11.10;38.38
56582;BME280;42463;52.214;21.238;2023-05-11T01:41:14;100894.10;;;11.09;38.32
56582;BME280;42463;52.214;21.238;2023-05-11T01:43:21;100895.01;;;11.08;38.44
56582;BME280;42463;52.214;21.238;2023-05-11T01:45:26;100893.64;;;11.07;38.44
56582;BME280;42463;52.214;21.238;2023-05-11T01:47:31;100893.73;;;11.07;38.51
56582;BME280;42463;52.214;21.238;2023-05-11T01:49:36;100896.05;;;11.06;38.64
56582;BME280;42463;52.214;21.238;2023-05-11T01:51:41;100891.86;;;11.05;38.64
56582;BME280;42463;52.214;21.238;2023-05-11T01:53:47;100889.55;;;11.02;38.63
56582;BME280;42463;52.214;21.238;2023-05-11T01:55:53;100891.04;;;11.01;38.70
56582;BME280;42463;52.214;21.238;2023-05-11T01:57:58;100892.34;;;11.01;38.82
56582;BME280;42463;52.214;21.238;2023-05-11T02:00:04;100893.63;;;11.00;38.70
56582;BME280;42463;52.214;21.238;2023-05-11T02:02:16;100891.80;;;10.98;38.56
56582;BME280;42463;52.214;21.238;2023-05-11T02:04:21;100890.08;;;10.96;38.72
56582;BME280;42463;52.214;21.238;2023-05-11T02:06:26;100893.14;;;10.94;38.72
56582;BME280;42463;52.214;21.238;2023-05-11T02:08:31;100892.60;;;10.91;38.76
56582;BME280;42463;52.214;21.238;2023-05-11T02:10:35;100896.13;;;10.91;38.75
56582;BME280;42463;52.214;21.238;2023-05-11T02:12:39;100891.53;;;10.89;38.90
56582;BME280;42463;52.214;21.238;2023-05-11T02:14:44;100891.61;;;10.87;38.86
56582;BME280;42463;52.214;21.238;2023-05-11T02:16:48;100893.10;;;10.85;39.02
56582;BME280;42463;52.214;21.238;2023-05-11T02:18:53;100894.05;;;10.83;39.03
56582;BME280;42463;52.214;21.238;2023-05-11T02:20:57;100897.33;;;10.82;38.88
56582;BME280;42463;52.214;21.238;2023-05-11T02:23:02;100895.52;;;10.81;38.90
56582;BME280;42463;52.214;21.238;2023-05-11T02:25:08;100894.54;;;10.80;38.76
56582;BME280;42463;52.214;21.238;2023-05-11T02:27:11;100897.34;;;10.80;38.81
56582;BME280;42463;52.214;21.238;2023-05-11T02:29:15;100898.09;;;10.76;38.98
56582;BME280;42463;52.214;21.238;2023-05-11T02:31:20;100898.55;;;10.74;39.07
56582;BME280;42463;52.214;21.238;2023-05-11T02:33:29;100900.57;;;10.72;39.24
56582;BME280;42463;52.214;21.238;2023-05-11T02:35:36;100903.05;;;10.68;39.14
56582;BME280;42463;52.214;21.238;2023-05-11T02:37:44;100900.39;;;10.65;39.35
56582;BME280;42463;52.214;21.238;2023-05-11T02:39:56;100900.89;;;10.63;39.43
56582;BME280;42463;52.214;21.238;2023-05-11T02:42:10;100901.45;;;10.61;39.30
56582;BME280;42463;52.214;21.238;2023-05-11T02:44:16;100901.61;;;10.59;39.57
56582;BME280;42463;52.214;21.238;2023-05-11T02:46:23;100903.82;;;10.57;39.72
56582;BME280;42463;52.214;21.238;2023-05-11T02:48:30;100905.86;;;10.56;39.74
56582;BME280;42463;52.214;21.238;2023-05-11T02:50:38;100904.04;;;10.55;39.59
56582;BME280;42463;52.214;21.238;2023-05-11T02:52:45;100906.15;;;10.51;39.72
56582;BME280;42463;52.214;21.238;2023-05-11T02:54:50;100905.64;;;10.50;39.66
56582;BME280;42463;52.214;21.238;2023-05-11T02:56:55;100904.88;;;10.47;39.66
56582;BME280;42463;52.214;21.238;2023-05-11T02:59:00;100908.86;;;10.46;39.81
56582;BME280;42463;52.214;21.238;2023-05-11T03:01:06;100905.10;;;10.45;39.95
56582;BME280;42463;52.214;21.238;2023-05-11T03:03:09;100906.49;;;10.44;39.78
56582;BME280;42463;52.214;21.238;2023-05-11T03:05:12;100906.84;;;10.45;40.00
56582;BME280;42463;52.214;21.238;2023-05-11T03:07:15;100906.46;;;10.45;39.84
56582;BME280;42463;52.214;21.238;2023-05-11T03:09:18;100906.45;;;10.42;40.04
56582;BME280;42463;52.214;21.238;2023-05-11T03:11:23;100908.79;;;10.42;39.98
56582;BME280;42463;52.214;21.238;2023-05-11T03:13:27;100907.96;;;10.41;39.94
56582;BME280;42463;52.214;21.238;2023-05-11T03:15:31;100908.77;;;10.41;39.97
56582;BME280;42463;52.214;21.238;2023-05-11T03:17:35;100910.86;;;10.40;40.17
56582;BME280;42463;52.214;21.238;2023-05-11T03:19:38;100912.11;;;10.39;40.02
56582;BME280;42463;52.214;21.238;2023-05-11T03:21:44;100912.33;;;10.39;39.97
56582;BME280;42463;52.214;21.238;2023-05-11T03:23:48;100913.73;;;10.39;39.97
56582;BME280;42463;52.214;21.238;2023-05-11T03:25:52;100909.80;;;10.38;40.09
56582;BME280;42463;52.214;21.238;2023-05-11T03:27:56;100909.90;;;10.37;40.02
56582;BME280;42463;52.214;21.238;2023-05-11T03:30:02;100911.91;;;10.37;40.17
56582;BME280;42463;52.214;21.238;2023-05-11T03:32:07;100910.97;;;10.36;40.14
56582;BME280;42463;52.214;21.238;2023-05-11T03:34:11;100914.55;;;10.34;40.24
56582;BME280;42463;52.214;21.238;2023-05-11T03:36:15;100917.17;;;10.32;40.12
56582;BME280;42463;52.214;21.238;2023-05-11T03:38:21;100918.45;;;10.31;40.12
56582;BME280;42463;52.214;21.238;2023-05-11T03:40:26;100919.11;;;10.34;40.36
56582;BME280;42463;52.214;21.238;2023-05-11T03:42:32;100921.61;;;10.34;40.13
56582;BME280;42463;52.214;21.238;2023-05-11T03:44:36;100920.92;;;10.35;40.14
56582;BME280;42463;52.214;21.238;2023-05-11T03:46:41;100922.48;;;10.36;40.03
56582;BME280;42463;52.214;21.238;2023-05-11T03:48:46;100923.25;;;10.37;40.06
56582;BME280;42463;52.214;21.238;2023-05-11T03:50:51;100925.77;;;10.38;40.24
56582;BME280;42463;52.214;21.238;2023-05-11T03:52:55;100926.33;;;10.41;40.06
56582;BME280;42463;52.214;21.238;2023-05-11T03:54:59;100931.03;;;10.42;40.18
56582;BME280;42463;52.214;21.238;2023-05-11T03:57:02;100933.25;;;10.45;40.12
56582;BME280;42463;52.214;21.238;2023-05-11T03:59:04;100934.68;;;10.48;40.09
56582;BME280;42463;52.214;21.238;2023-05-11T04:01:08;100933.82;;;10.51;39.96
56582;BME280;42463;52.214;21.238;2023-05-11T04:03:10;100935.09;;;10.53;39.99
56582;BME280;42463;52.214;21.238;2023-05-11T04:05:13;100935.25;;;10.55;40.09
56582;BME280;42463;52.214;21.238;2023-05-11T04:07:19;100937.02;;;10.59;40.12
56582;BME280;42463;52.214;21.238;2023-05-11T04:09:23;100931.29;;;10.61;40.00
56582;BME280;42463;52.214;21.238;2023-05-11T04:11:26;100937.29;;;10.65;39.99
56582;BME280;42463;52.214;21.238;2023-05-11T04:13:31;100932.23;;;10.67;39.85
56582;BME280;42463;52.214;21.238;2023-05-11T04:15:34;100937.34;;;10.71;39.82
56582;BME280;42463;52.214;21.238;2023-05-11T04:17:39;100936.09;;;10.74;40.01
56582;BME280;42463;52.214;21.238;2023-05-11T04:19:41;100935.77;;;10.77;39.91
56582;BME280;42463;52.214;21.238;2023-05-11T04:21:45;100935.73;;;10.80;39.90
56582;BME280;42463;52.214;21.238;2023-05-11T04:23:48;100937.53;;;10.84;39.97
56582;BME280;42463;52.214;21.238;2023-05-11T04:25:53;100940.23;;;10.86;39.72
56582;BME280;42463;52.214;21.238;2023-05-11T04:27:56;100939.61;;;10.88;39.84
56582;BME280;42463;52.214;21.238;2023-05-11T04:30:01;100942.91;;;10.90;39.83
56582;BME280;42463;52.214;21.238;2023-05-11T04:32:05;100944.27;;;10.93;39.92
56582;BME280;42463;52.214;21.238;2023-05-11T04:34:08;100944.56;;;10.95;39.91
56582;BME280;42463;52.214;21.238;2023-05-11T04:36:12;100945.85;;;10.97;39.75
56582;BME280;42463;52.214;21.238;2023-05-11T04:38:15;100948.20;;;11.00;39.82
56582;BME280;42463;52.214;21.238;2023-05-11T04:40:19;100948.77;;;11.01;39.77
56582;BME280;42463;52.214;21.238;2023-05-11T04:42:22;100947.34;;;11.04;39.75
56582;BME280;42463;52.214;21.238;2023-05-11T04:44:27;100943.92;;;11.07;39.57
56582;BME280;42463;52.214;21.238;2023-05-11T04:46:30;100949.33;;;11.12;39.58
56582;BME280;42463;52.214;21.238;2023-05-11T04:48:32;100949.06;;;11.15;39.46
56582;BME280;42463;52.214;21.238;2023-05-11T04:50:36;100953.61;;;11.17;39.56
56582;BME280;42463;52.214;21.238;2023-05-11T04:52:39;100953.00;;;11.20;39.64
56582;BME280;42463;52.214;21.238;2023-05-11T04:54:42;100951.88;;;11.21;39.66
56582;BME280;42463;52.214;21.238;2023-05-11T04:56:45;100954.30;;;11.23;39.48
56582;BME280;42463;52.214;21.238;2023-05-11T04:58:48;100954.50;;;11.25;39.73
56582;BME280;42463;52.214;21.238;2023-05-11T05:00:51;100955.81;;;11.26;39.75
56582;BME280;42463;52.214;21.238;2023-05-11T05:02:53;100958.73;;;11.28;39.84
56582;BME280;42463;52.214;21.238;2023-05-11T05:04:56;100961.88;;;11.31;39.77
56582;BME280;42463;52.214;21.238;2023-05-11T05:06:59;100960.98;;;11.36;40.01
56582;BME280;42463;52.214;21.238;2023-05-11T05:09:02;100958.17;;;11.43;40.04
56582;BME280;42463;52.214;21.238;2023-05-11T05:11:06;100957.81;;;11.49;39.84
56582;BME280;42463;52.214;21.238;2023-05-11T05:13:08;100959.71;;;11.56;39.73
56582;BME280;42463;52.214;21.238;2023-05-11T05:15:12;100962.64;;;11.62;39.83
56582;BME280;42463;52.214;21.238;2023-05-11T05:17:15;100966.16;;;11.68;39.62
56582;BME280;42463;52.214;21.238;2023-05-11T05:19:18;100968.04;;;11.73;39.74
56582;BME280;42463;52.214;21.238;2023-05-11T05:21:20;100964.27;;;11.79;39.59
56582;BME280;42463;52.214;21.238;2023-05-11T05:23:23;100966.65;;;11.85;39.62
56582;BME280;42463;52.214;21.238;2023-05-11T05:25:26;100969.95;;;11.91;39.54
56582;BME280;42463;52.214;21.238;2023-05-11T05:27:30;100973.11;;;11.95;39.06
56582;BME280;42463;52.214;21.238;2023-05-11T05:29:34;100965.10;;;11.97;39.06
56582;BME280;42463;52.214;21.238;2023-05-11T05:31:36;100970.86;;;12.01;39.41
56582;BME280;42463;52.214;21.238;2023-05-11T05:33:39;100970.80;;;12.04;39.14
56582;BME280;42463;52.214;21.238;2023-05-11T05:35:42;100967.23;;;12.10;39.01
56582;BME280;42463;52.214;21.238;2023-05-11T05:37:48;100966.65;;;12.15;39.28
56582;BME280;42463;52.214;21.238;2023-05-11T05:39:52;100972.06;;;12.21;38.95
56582;BME280;42463;52.214;21.238;2023-05-11T05:41:54;100969.25;;;12.26;39.12
56582;BME280;42463;52.214;21.238;2023-05-11T05:43:58;100965.62;;;12.32;39.22
56582;BME280;42463;52.214;21.238;2023-05-11T05:46:01;100970.80;;;12.37;38.97
56582;BME280;42463;52.214;21.238;2023-05-11T05:48:06;100972.30;;;12.43;38.80
56582;BME280;42463;52.214;21.238;2023-05-11T05:50:10;100978.38;;;12.49;38.53
56582;BME280;42463;52.214;21.238;2023-05-11T05:52:13;100978.06;;;12.54;38.27
56582;BME280;42463;52.214;21.238;2023-05-11T05:54:16;100979.27;;;12.60;38.33
56582;BME280;42463;52.214;21.238;2023-05-11T05:56:19;100977.61;;;12.65;38.20
56582;BME280;42463;52.214;21.238;2023-05-11T05:58:23;100972.13;;;12.72;38.02
56582;BME280;42463;52.214;21.238;2023-05-11T06:00:25;100978.70;;;12.79;37.79
56582;BME280;42463;52.214;21.238;2023-05-11T06:02:34;100978.55;;;12.87;37.84
56582;BME280;42463;52.214;21.238;2023-05-11T06:04:37;100979.98;;;12.93;37.69
56582;BME280;42463;52.214;21.238;2023-05-11T06:06:41;100979.48;;;13.02;37.64
56582;BME280;42463;52.214;21.238;2023-05-11T06:08:43;100978.30;;;13.10;37.43
56582;BME280;42463;52.214;21.238;2023-05-11T06:10:45;100976.11;;;13.18;37.12
56582;BME280;42463;52.214;21.238;2023-05-11T06:12:48;100973.04;;;13.25;36.92
56582;BME280;42463;52.214;21.238;2023-05-11T06:14:51;100974.30;;;13.32;36.90
56582;BME280;42463;52.214;21.238;2023-05-11T06:16:54;100973.55;;;13.40;37.00
56582;BME280;42463;52.214;21.238;2023-05-11T06:18:56;100974.00;;;13.47;36.40
56582;BME280;42463;52.214;21.238;2023-05-11T06:20:59;100976.33;;;13.55;36.49
56582;BME280;42463;52.214;21.238;2023-05-11T06:23:02;100982.16;;;13.62;36.10
56582;BME280;42463;52.214;21.238;2023-05-11T06:25:07;100977.58;;;13.70;36.00
56582;BME280;42463;52.214;21.238;2023-05-11T06:27:10;100981.56;;;13.79;36.28
56582;BME280;42463;52.214;21.238;2023-05-11T06:29:13;100979.89;;;13.87;35.70
56582;BME280;42463;52.214;21.238;2023-05-11T06:31:16;100979.55;;;13.94;35.17
56582;BME280;42463;52.214;21.238;2023-05-11T06:33:20;100979.91;;;14.00;35.08
56582;BME280;42463;52.214;21.238;2023-05-11T06:35:22;100984.05;;;14.06;35.26
56582;BME280;42463;52.214;21.238;2023-05-11T06:37:29;100985.95;;;14.14;34.97
56582;BME280;42463;52.214;21.238;2023-05-11T06:39:35;100984.63;;;14.21;34.75
56582;BME280;42463;52.214;21.238;2023-05-11T06:41:38;100984.60;;;14.25;34.01
56582;BME280;42463;52.214;21.238;2023-05-11T06:43:41;100984.84;;;14.30;34.34
56582;BME280;42463;52.214;21.238;2023-05-11T06:45:54;100986.56;;;14.38;34.63
56582;BME280;42463;52.214;21.238;2023-05-11T06:47:57;100982.87;;;14.46;35.05
56582;BME280;42463;52.214;21.238;2023-05-11T06:50:00;100986.18;;;14.54;34.33
56582;BME280;42463;52.214;21.238;2023-05-11T06:52:03;100992.46;;;14.61;33.73
56582;BME280;42463;52.214;21.238;2023-05-11T06:54:06;100985.01;;;14.68;33.37
56582;BME280;42463;52.214;21.238;2023-05-11T06:56:11;100988.31;;;14.75;32.92
56582;BME280;42463;52.214;21.238;2023-05-11T06:58:14;100988.55;;;14.80;32.66
56582;BME280;42463;52.214;21.238;2023-05-11T07:00:20;100988.45;;;14.86;32.69
56582;BME280;42463;52.214;21.238;2023-05-11T07:02:22;100983.88;;;14.90;31.92
56582;BME280;42463;52.214;21.238;2023-05-11T07:04:26;100990.66;;;14.93;31.65
56582;BME280;42463;52.214;21.238;2023-05-11T07:06:30;100985.31;;;14.96;31.95
56582;BME280;42463;52.214;21.238;2023-05-11T07:08:34;100983.48;;;15.04;32.08
56582;BME280;42463;52.214;21.238;2023-05-11T07:10:37;100987.91;;;15.09;31.72
56582;BME280;42463;52.214;21.238;2023-05-11T07:12:40;100984.64;;;15.16;31.96
56582;BME280;42463;52.214;21.238;2023-05-11T07:14:43;100984.92;;;15.22;31.41
56582;BME280;42463;52.214;21.238;2023-05-11T07:16:45;100988.05;;;15.29;30.85
56582;BME280;42463;52.214;21.238;2023-05-11T07:18:48;100986.74;;;15.34;30.95
56582;BME280;42463;52.214;21.238;2023-05-11T07:20:51;100985.77;;;15.40;30.08
56582;BME280;42463;52.214;21.238;2023-05-11T07:22:56;100988.77;;;15.45;30.30
56582;BME280;42463;52.214;21.238;2023-05-11T07:25:00;100990.91;;;15.49;29.79
56582;BME280;42463;52.214;21.238;2023-05-11T07:27:03;100987.40;;;15.52;29.95
56582;BME280;42463;52.214;21.238;2023-05-11T07:29:06;100987.25;;;15.56;29.64
56582;BME280;42463;52.214;21.238;2023-05-11T07:31:09;100987.53;;;15.59;29.47
56582;BME280;42463;52.214;21.238;2023-05-11T07:33:12;100989.21;;;15.62;29.41
56582;BME280;42463;52.214;21.238;2023-05-11T07:35:15;100986.15;;;15.68;29.54
56582;BME280;42463;52.214;21.238;2023-05-11T07:37:18;100987.95;;;15.73;28.58
56582;BME280;42463;52.214;21.238;2023-05-11T07:39:21;100981.11;;;15.76;28.54
56582;BME280;42463;52.214;21.238;2023-05-11T07:41:23;100982.75;;;15.79;28.48
56582;BME280;42463;52.214;21.238;2023-05-11T07:43:28;100985.92;;;15.84;28.66
56582;BME280;42463;52.214;21.238;2023-05-11T07:45:31;100985.86;;;15.88;28.06
56582;BME280;42463;52.214;21.238;2023-05-11T07:47:33;100983.44;;;15.92;28.19
56582;BME280;42463;52.214;21.238;2023-05-11T07:49:36;100984.20;;;15.99;27.80
56582;BME280;42463;52.214;21.238;2023-05-11T07:51:40;100982.60;;;16.04;27.76
56582;BME280;42463;52.214;21.238;2023-05-11T07:53:46;100981.99;;;16.10;27.73
56582;BME280;42463;52.214;21.238;2023-05-11T07:55:48;100984.00;;;16.16;27.51
56582;BME280;42463;52.214;21.238;2023-05-11T07:57:52;100984.86;;;16.22;27.60
56582;BME280;42463;52.214;21.238;2023-05-11T07:59:55;100983.42;;;16.28;26.33
56582;BME280;42463;52.214;21.238;2023-05-11T08:01:58;100984.29;;;16.31;26.29
56582;BME280;42463;52.214;21.238;2023-05-11T08:04:01;100975.99;;;16.38;26.09
56582;BME280;42463;52.214;21.238;2023-05-11T08:06:05;100976.85;;;16.44;25.96
56582;BME280;42463;52.214;21.238;2023-05-11T08:08:08;100981.54;;;16.47;25.81
56582;BME280;42463;52.214;21.238;2023-05-11T08:10:12;100981.04;;;16.51;25.50
56582;BME280;42463;52.214;21.238;2023-05-11T08:12:14;100971.13;;;16.51;25.14
56582;BME280;42463;52.214;21.238;2023-05-11T08:14:18;100979.77;;;16.53;25.57
56582;BME280;42463;52.214;21.238;2023-05-11T08:16:22;100972.20;;;16.56;25.78
56582;BME280;42463;52.214;21.238;2023-05-11T08:18:25;100970.64;;;16.60;25.52
56582;BME280;42463;52.214;21.238;2023-05-11T08:20:28;100965.73;;;16.66;25.34
56582;BME280;42463;52.214;21.238;2023-05-11T08:22:30;100968.91;;;16.70;25.29
56582;BME280;42463;52.214;21.238;2023-05-11T08:24:33;100967.57;;;16.75;25.63
56582;BME280;42463;52.214;21.238;2023-05-11T08:26:36;100963.59;;;16.80;25.80
56582;BME280;42463;52.214;21.238;2023-05-11T08:28:39;100965.31;;;16.86;26.13
56582;BME280;42463;52.214;21.238;2023-05-11T08:30:42;100956.05;;;16.95;25.57
56582;BME280;42463;52.214;21.238;2023-05-11T08:32:45;100961.66;;;17.01;25.50
56582;BME280;42463;52.214;21.238;2023-05-11T08:34:47;100964.76;;;17.06;25.47
56582;BME280;42463;52.214;21.238;2023-05-11T08:36:50;100968.11;;;17.12;26.09
56582;BME280;42463;52.214;21.238;2023-05-11T08:38:54;100962.70;;;17.17;25.06
56582;BME280;42463;52.214;21.238;2023-05-11T08:40:57;100956.02;;;17.24;25.73
56582;BME280;42463;52.214;21.238;2023-05-11T08:43:00;100957.55;;;17.31;25.40
56582;BME280;42463;52.214;21.238;2023-05-11T08:45:10;100950.33;;;17.36;25.15
56582;BME280;42463;52.214;21.238;2023-05-11T08:47:13;100954.62;;;17.41;25.26
56582;BME280;42463;52.214;21.238;2023-05-11T08:49:16;100959.64;;;17.44;24.80
56582;BME280;42463;52.214;21.238;2023-05-11T08:51:19;100959.12;;;17.47;25.34
56582;BME280;42463;52.214;21.238;2023-05-11T08:53:22;100962.42;;;17.52;25.69
56582;BME280;42463;52.214;21.238;2023-05-11T08:55:25;100958.98;;;17.57;25.21
56582;BME280;42463;52.214;21.238;2023-05-11T08:57:30;100966.21;;;17.58;25.27
56582;BME280;42463;52.214;21.238;2023-05-11T08:59:33;100956.16;;;17.60;25.21
56582;BME280;42463;52.214;21.238;2023-05-11T09:01:40;100955.52;;;17.60;25.27
56582;BME280;42463;52.214;21.238;2023-05-11T09:03:44;100959.65;;;17.63;25.41
56582;BME280;42463;52.214;21.238;2023-05-11T09:05:48;100962.45;;;17.63;25.07
56582;BME280;42463;52.214;21.238;2023-05-11T09:07:54;100958.12;;;17.62;25.00
56582;BME280;42463;52.214;21.238;2023-05-11T09:09:58;100965.59;;;17.61;24.98
56582;BME280;42463;52.214;21.238;2023-05-11T09:12:02;100961.41;;;17.62;24.92
56582;BME280;42463;52.214;21.238;2023-05-11T09:14:04;100957.07;;;17.62;24.84
56582;BME280;42463;52.214;21.238;2023-05-11T09:16:08;100959.48;;;17.64;24.91
56582;BME280;42463;52.214;21.238;2023-05-11T09:18:10;100959.98;;;17.67;25.08
56582;BME280;42463;52.214;21.238;2023-05-11T09:20:14;100954.27;;;17.71;25.16
56582;BME280;42463;52.214;21.238;2023-05-11T09:22:17;100947.29;;;17.77;25.42
56582;BME280;42463;52.214;21.238;2023-05-11T09:24:20;100953.26;;;17.83;25.27
56582;BME280;42463;52.214;21.238;2023-05-11T09:26:24;100950.77;;;17.91;25.02
56582;BME280;42463;52.214;21.238;2023-05-11T09:28:29;100953.27;;;17.94;24.98
56582;BME280;42463;52.214;21.238;2023-05-11T09:30:33;100954.70;;;17.98;24.97
56582;BME280;42463;52.214;21.238;2023-05-11T09:32:46;100949.72;;;18.02;25.05
56582;BME280;42463;52.214;21.238;2023-05-11T09:34:50;100946.58;;;18.08;24.87
56582;BME280;42463;52.214;21.238;2023-05-11T09:36:54;100944.29;;;18.11;24.70
56582;BME280;42463;52.214;21.238;2023-05-11T09:39:01;100941.30;;;18.13;25.07
56582;BME280;42463;52.214;21.238;2023-05-11T09:41:05;100943.10;;;18.15;24.81
56582;BME280;42463;52.214;21.238;2023-05-11T09:43:16;100941.70;;;18.16;24.94
56582;BME280;42463;52.214;21.238;2023-05-11T09:45:34;100940.48;;;18.18;25.49
56582;BME280;42463;52.214;21.238;2023-05-11T09:47:39;100943.30;;;18.22;25.15
56582;BME280;42463;52.214;21.238;2023-05-11T09:49:43;100931.55;;;18.24;24.95
56582;BME280;42463;52.214;21.238;2023-05-11T09:51:46;100935.11;;;18.31;25.36
56582;BME280;42463;52.214;21.238;2023-05-11T09:53:49;100935.14;;;18.37;24.91
56582;BME280;42463;52.214;21.238;2023-05-11T09:55:52;100930.23;;;18.42;25.20
56582;BME280;42463;52.214;21.238;2023-05-11T09:57:57;100925.38;;;18.49;25.10
56582;BME280;42463;52.214;21.238;2023-05-11T10:00:00;100936.23;;;18.54;24.84
56582;BME280;42463;52.214;21.238;2023-05-11T10:02:16;100925.50;;;18.56;24.88
56582;BME280;42463;52.214;21.238;2023-05-11T10:04:28;100928.52;;;18.61;25.02
56582;BME280;42463;52.214;21.238;2023-05-11T10:06:44;100924.86;;;18.65;24.78
56582;BME280;42463;52.214;21.238;2023-05-11T10:08:47;100918.08;;;18.67;24.62
56582;BME280;42463;52.214;21.238;2023-05-11T10:10:50;100922.70;;;18.70;24.61
56582;BME280;42463;52.214;21.238;2023-05-11T10:12:54;100921.20;;;18.72;24.05
56582;BME280;42463;52.214;21.238;2023-05-11T10:15:01;100915.95;;;18.75;24.13
56582;BME280;42463;52.214;21.238;2023-05-11T10:17:05;100910.45;;;18.79;24.55
56582;BME280;42463;52.214;21.238;2023-05-11T10:19:09;100917.84;;;18.82;24.66
56582;BME280;42463;52.214;21.238;2023-05-11T10:21:13;100915.63;;;18.86;24.66
56582;BME280;42463;52.214;21.238;2023-05-11T10:23:17;100908.48;;;18.90;24.40
56582;BME280;42463;52.214;21.238;2023-05-11T10:25:21;100906.32;;;18.95;24.33
56582;BME280;42463;52.214;21.238;2023-05-11T10:27:24;100911.02;;;18.99;24.44
56582;BME280;42463;52.214;21.238;2023-05-11T10:29:27;100916.60;;;19.02;23.98
56582;BME280;42463;52.214;21.238;2023-05-11T10:31:31;100902.73;;;19.02;23.74
56582;BME280;42463;52.214;21.238;2023-05-11T10:33:35;100908.28;;;19.06;23.61
56582;BME280;42463;52.214;21.238;2023-05-11T10:35:38;100913.28;;;19.06;24.00
56582;BME280;42463;52.214;21.238;2023-05-11T10:37:41;100909.44;;;19.06;23.87
56582;BME280;42463;52.214;21.238;2023-05-11T10:39:45;100904.29;;;19.08;24.27
56582;BME280;42463;52.214;21.238;2023-05-11T10:42:01;100906.18;;;19.13;24.15
56582;BME280;42463;52.214;21.238;2023-05-11T10:44:22;100904.45;;;19.19;24.02
56582;BME280;42463;52.214;21.238;2023-05-11T10:46:44;100903.87;;;19.21;24.21